Monday, January 21, 2019, 5:51 PM EST
Back to Local

KBUF, Greater Buffalo International Airport

Location: Buffalo, NY, United States Lat: 42.933
Local Time: 5:51 PM EST (22:51 GMT) Lon: -78.733
Time Zone: US/Eastern Elev: 725 ft

Show me the last for .
Show Decoded

2019-01-21 16:54 METAR KBUF 212154Z 25013KT 10SM FEW027 FEW033 M14/M21 A3046 RMK AO2 SLP334
                 T11391206 =
2019-01-21 15:54 METAR KBUF 212054Z 26011KT 3SM SCT029 OVC034 M14/M21 A3044 RMK AO2 SFC VIS 10
                 SLP329 60000 T11441211 53011 =
2019-01-21 14:54 METAR KBUF 211954Z 27013KT 3SM SCT022 BKN034 M14/M19 A3042 RMK AO2 WSHFT 1929
                 SFC VIS 9 SNB24E50 SLP322 P0000 T11391194 =
2019-01-21 14:45 METAR KBUF 211945Z 24011KT 3SM -SN SCT022 BKN034 M14/M19 A3042 RMK AO2 WSHFT
                 1929 SFC VIS 7 SNB24 P0000 T11391194 =
2019-01-21 14:29 METAR KBUF 211929Z 29015G18KT 2 1/2SM R23/6000VP6000FT -SN SCT024 BKN031 M13/M18
                 A3041 RMK AO2 TWR VIS 3 SNB24 P0000 T11331178 =
2019-01-21 13:54 METAR KBUF 211854Z 31016KT 3SM SCT024 BKN031 M14/M19 A3041 RMK AO2 SFC VIS 10
                 SLP319 T11391189 =
2019-01-21 12:54 METAR KBUF 211754Z 30015G21KT 3SM SCT024 BKN031 M15/M20 A3040 RMK AO2 SFC VIS 10
                 SLP317 SNE37 4/012 933012 P0000 60000 T11501200 11144 21194 51012 =
2019-01-21 11:54 METAR KBUF 211654Z 31015G20KT 3SM -SN FEW014 SCT020 M16/M21 A3040 RMK AO2 SFC
                 VIS 4 SLP317 P0000 T11561206 =
2019-01-21 11:01 METAR KBUF 211601Z 33015KT 3SM -SN FEW014 SCT020 M17/M21 A3039 =
2019-01-21 10:54 METAR KBUF 211554Z 32016KT 3SM -SN FEW014 BKN020 M17/M21 A3039 RMK AO2 SLP311
                 P0000 T11671211 =
2019-01-21 10:01 METAR KBUF 211501Z 32015G22KT 3SM -SN FEW014 BKN020 M17/M21 A3037 RMK AO2 SFC
                 VIS 4 P0000 T11721211 =
2019-01-21 09:54 METAR KBUF 211454Z 31011G22KT 2 1/2SM -SN FEW014 BKN020 M17/M21 A3037 RMK AO2
                 TWR VIS 3 SLP305 P0000 60000 T11721206 53041 =
2019-01-21 09:24 METAR KBUF 211424Z 31013KT 2 1/2SM -SN FEW014 BKN020 M18/M21 A3035 RMK AO2 P0000
                 T11831211 =
2019-01-21 09:14 METAR KBUF 211414Z COR 31012G20KT 2 1/2SM -SN FEW014 BKN020 M18/M21 A3034 =
2019-01-21 08:54 METAR KBUF 211354Z 31010KT 4SM -SN FEW014 BKN020 M18/M22 A3033 RMK AO2 SLP291
                 P0000 T11831217 =
2019-01-21 08:34 METAR KBUF 211334Z 30010KT 2 1/2SM -SN FEW014 BKN020 M19/M22 A3032 RMK AO2 P0000
                 T11891217 =
2019-01-21 07:54 METAR KBUF 211254Z COR 31008KT 4SM -SN FEW014 BKN022 BKN050 M19/M22 A3028 RMK
                 AO2 SLP274 P0000 T11941222 =
2019-01-21 06:54 METAR KBUF 211154Z 32008KT 3SM -SN FEW013 BKN024 OVC040 M19/M22 A3024 RMK AO2
                 SLP262 P0000 60001 70007 4/013 T11941222 11194 21200 53026 =
2019-01-21 05:54 METAR KBUF 211054Z 33013KT 4SM -SN OVC022 M19/M23 A3020 RMK AO2 SLP249 P0000
                 T11941228 =
2019-01-21 04:54 METAR KBUF 210954Z 30014KT 3SM -SN FEW016 OVC026 M19/M22 A3018 RMK AO2 SLP241
                 P0000 T11941222 =
2019-01-21 03:54 METAR KBUF 210854Z 31012KT 4SM -SN BKN017 OVC029 M20/M23 A3017 RMK AO2 SLP235
                 P0000 60000 T12001233 53014 =
2019-01-21 02:54 METAR KBUF 210754Z 31012KT 5SM -SN BKN028 OVC050 M20/M23 A3015 RMK AO2 SLP229
                 P0000 T12001233 =
2019-01-21 02:08 METAR KBUF 210708Z 32011KT 7SM -SN BKN029 OVC050 M19/M23 A3013 RMK AO2 P0000
                 T11941233 =
2019-01-21 01:54 METAR KBUF 210654Z 31013G18KT 5SM -SN OVC030 M19/M23 A3012 RMK AO2 SLP221 P0000
                 T11941228 =
2019-01-21 01:37 METAR KBUF 210637Z 31008KT 4SM -SN OVC029 M19/M22 A3012 RMK AO2 P0000 T11941222
                 =
2019-01-21 00:54 METAR KBUF 210554Z 32013KT 6SM -SN OVC030 M19/M23 A3011 RMK AO2 SLP215 P0000
                 60001 4/013 T11941228 11156 21194 51014 =
2019-01-20 23:54 METAR KBUF 210454Z 31012KT 7SM -SN BKN019 OVC031 M19/M23 A3009 RMK AO2 SLP210
                 P0000 T11941228 411061194 =
2019-01-20 22:54 METAR KBUF 210354Z 32009KT 5SM -SN BKN012 BKN031 M19/M22 A3008 RMK AO2 SLP206
                 P0000 T11891217 =
2019-01-20 21:54 METAR KBUF 210254Z 33012G21KT 3SM -SN OVC032 M18/M21 A3007 RMK AO2 SLP200 P0000
                 60000 T11831211 51019 =
2019-01-20 21:30 METAR KBUF 210230Z 33016G20KT 2 1/2SM -SN OVC033 M18/M21 A3005 RMK AO2 P0000
                 T11781206 =
2019-01-20 20:54 METAR KBUF 210154Z 33012KT 4SM -SN OVC031 M17/M21 A3005 RMK AO2 SLP193 P0000
                 T11721206 =
2019-01-20 19:54 METAR KBUF 210054Z COR 32013KT 3SM -SN BLSN BKN034 M17/M19 A3004 RMK AO2 SLP189
                 P0000 T11671194 =
2019-01-20 19:39 METAR KBUF 210039Z 34014KT 3SM -SN BLSN BKN022 OVC036 M17/M19 A3003 RMK AO2
                 P0000 T11671194 =
2019-01-20 19:07 METAR KBUF 210007Z 33014KT 2 1/2SM -SN BLSN BKN016 BKN029 OVC036 M16/M18 A3002
                 RMK AO2 P0000 T11611183 =
2019-01-20 18:54 METAR KBUF 202354Z 34015G24KT 1 3/4SM -SN BLSN BKN015 BKN022 OVC032 M16/M18
                 A3001 RMK AO2 SLP180 4/013 P0000 60001 T11561183 11128 21156 53034 =
2019-01-20 18:03 METAR KBUF 202303Z 32016G23KT 1SM R23/P6000FT -SN BLSN BKN014 BKN022 OVC030
                 M15/M18 A2998 RMK AO2 P0000 T11501178 =
2019-01-20 17:54 METAR KBUF 202254Z 31013KT 2SM -SN BLSN BKN014 BKN030 M15/M17 A2997 RMK AO2
                 SLP166 P0000 T11501172 =

Support USWX by starting your Amazon purchase here.